Arctic Bay — 9HTD8 — position and weather

sailwx.info

Track history (hours):
 
Tides and Currents Weather Stations Pressure Air Temp Water Temp Dewpoint Dewpoint Depression Visibility Wind Speed Wind Dir Waves Ship Positions

Arctic Bay

Last reported at 2016-May-21 08:25 UTC. Time now 2016-May-26 20:20 UTC.
Position N 11°02' W 061°33'.

Length 182 m; draft 11.4 m.

Type: Ship. MMSI: 256396000.

Date/timePositionNaut miles runAvg speedWind from/ knotsBaromVisibWave heightAir tempDewpointWater temp
2016-May-21 08:25N 11°02' W 061°33'6 4.2
2016-May-21 07:05N 11°02' W 061°38'0 0.1
2016-May-21 06:04N 11°01' W 061°38'1 0.6
2016-May-21 04:26N 11°02' W 061°37'1 0.7
2016-May-21 03:15N 11°02' W 061°36'0 0.6
2016-May-21 02:33N 11°02' W 061°36'1 0.9
2016-May-21 01:21N 11°03' W 061°35'  
2016-May-14 17:19N 29°42' W 089°59'1013.4
2016-May-14 16:33N 29°52' W 089°59'5 5.4
2016-May-14 15:34N 29°57' W 090°01'9 9.4
2016-May-14 14:33N 29°55' W 090°12'1110.3
2016-May-14 13:28N 29°59' W 090°24'0 0.0
2016-May-14 09:22N 29°59' W 090°24'5 0.1
2016-May-12 11:32N 29°57' W 090°18'5 5.1
2016-May-12 10:33N 29°56' W 090°13'8 7.5
2016-May-12 09:34N 29°55' W 090°04'7 7.4
2016-May-12 08:34N 29°55' W 089°56'8 7.8
2016-May-12 07:33N 29°48' W 090°00'  
Track history (hours):
 
Tides and Currents Weather Stations Pressure Air Temp Water Temp Dewpoint Dewpoint Depression Visibility Wind Speed Wind Dir Waves Ship Positions

Arctic Bay

Last reported at 2016-May-21 08:25 UTC. Time now 2016-May-26 20:20 UTC.
Position N 11°02' W 061°33'.

Length 182 m; draft 11.4 m.

Type: Ship. MMSI: 256396000.

Date/timePositionNaut miles runAvg speedWind from/ knotsBaromVisibWave heightAir tempDewpointWater temp
2016-May-21 08:25N 11°02' W 061°33'6 4.2
2016-May-21 07:05N 11°02' W 061°38'0 0.1
2016-May-21 06:04N 11°01' W 061°38'1 0.6
2016-May-21 04:26N 11°02' W 061°37'1 0.7
2016-May-21 03:15N 11°02' W 061°36'0 0.6
2016-May-21 02:33N 11°02' W 061°36'1 0.9
2016-May-21 01:21N 11°03' W 061°35'  
2016-May-14 17:19N 29°42' W 089°59'1013.4
2016-May-14 16:33N 29°52' W 089°59'5 5.4
2016-May-14 15:34N 29°57' W 090°01'9 9.4
2016-May-14 14:33N 29°55' W 090°12'1110.3
2016-May-14 13:28N 29°59' W 090°24'0 0.0
2016-May-14 09:22N 29°59' W 090°24'5 0.1
2016-May-12 11:32N 29°57' W 090°18'5 5.1
2016-May-12 10:33N 29°56' W 090°13'8 7.5
2016-May-12 09:34N 29°55' W 090°04'7 7.4
2016-May-12 08:34N 29°55' W 089°56'8 7.8
2016-May-12 07:33N 29°48' W 090°00'  

Dump ship's entire track history